createdAt,value
2018-09-15T00:01:50.974Z,15.87
2018-09-15T00:04:19.519Z,15.94
2018-09-15T00:06:48.044Z,15.99
2018-09-15T00:09:16.592Z,16.06
2018-09-15T00:11:45.133Z,16.12
2018-09-15T00:14:13.685Z,16.17
2018-09-15T00:16:43.160Z,16.25
2018-09-15T00:19:11.696Z,16.28
2018-09-15T00:21:40.239Z,16.30
2018-09-15T00:24:08.773Z,16.30
2018-09-15T00:26:37.327Z,16.45
2018-09-15T00:29:05.850Z,16.44
2018-09-15T00:31:34.388Z,16.17
2018-09-15T00:34:02.931Z,16.18
2018-09-15T00:36:31.498Z,16.27
2018-09-15T00:39:00.091Z,16.12
2018-09-15T00:41:28.603Z,15.97
2018-09-15T00:43:58.136Z,16.02
2018-09-15T00:46:26.694Z,15.94
2018-09-15T00:48:56.127Z,15.93
2018-09-15T00:51:24.672Z,15.94
2018-09-15T00:53:54.124Z,15.87
2018-09-15T00:56:23.823Z,15.73
2018-09-15T00:58:52.376Z,15.67
2018-09-15T01:01:21.854Z,15.66
2018-09-15T01:03:50.384Z,15.71
2018-09-15T01:06:18.916Z,15.77
2018-09-15T01:08:47.451Z,15.81
2018-09-15T01:11:17.000Z,15.87
2018-09-15T01:13:45.522Z,15.89
2018-09-15T01:16:14.082Z,15.97
2018-09-15T01:18:42.627Z,16.03
2018-09-15T01:21:14.938Z,16.03
2018-09-15T01:23:43.474Z,16.02
2018-09-15T01:26:12.002Z,16.00
2018-09-15T01:28:40.734Z,16.02
2018-09-15T01:31:09.271Z,16.01
2018-09-15T01:33:37.835Z,16.04
2018-09-15T01:36:12.180Z,16.07
2018-09-15T01:38:41.696Z,16.07
2018-09-15T01:41:10.212Z,16.07
2018-09-15T01:43:38.776Z,16.12
2018-09-15T01:46:07.295Z,16.15
2018-09-15T01:48:41.178Z,16.17
2018-09-15T01:51:10.679Z,16.16
2018-09-15T01:53:39.201Z,16.23
2018-09-15T01:56:07.767Z,16.19
2018-09-15T01:58:36.299Z,16.18
2018-09-15T02:01:04.838Z,16.14
2018-09-15T02:03:35.346Z,16.04
2018-09-15T02:06:03.883Z,15.90
2018-09-15T02:08:32.440Z,15.84
2018-09-15T02:14:09.254Z,15.71
2018-09-15T02:16:39.247Z,15.63
2018-09-15T02:19:10.283Z,15.51
2018-09-15T02:21:39.343Z,15.39
2018-09-15T02:24:08.415Z,15.33
2018-09-15T02:26:38.485Z,15.22
2018-09-15T02:29:08.612Z,15.15
2018-09-15T02:31:38.526Z,15.07
2018-09-15T02:36:43.308Z,15.15
2018-09-15T02:39:13.303Z,15.28
2018-09-15T02:41:42.525Z,15.27
2018-09-15T02:44:11.610Z,15.21
2018-09-15T02:46:40.676Z,15.16
2018-09-15T02:49:09.744Z,15.10
2018-09-15T02:51:39.740Z,14.94
2018-09-15T02:54:08.860Z,14.82
2018-09-15T02:56:37.933Z,14.87
2018-09-15T03:01:42.698Z,14.81
2018-09-15T03:04:12.793Z,14.77
2018-09-15T03:09:17.964Z,14.60
2018-09-15T03:11:47.001Z,14.61
2018-09-15T03:14:16.068Z,14.50
2018-09-15T03:16:45.158Z,14.60
2018-09-15T03:19:14.237Z,14.67
2018-09-15T03:24:19.029Z,14.79
2018-09-15T03:29:23.881Z,14.84
2018-09-15T03:31:52.988Z,14.81
2018-09-15T03:34:23.006Z,14.92
2018-09-15T03:39:28.911Z,15.04
2018-09-15T03:41:59.039Z,15.18
2018-09-15T03:47:13.128Z,15.14
2018-09-15T03:49:42.192Z,15.13
2018-09-15T03:52:11.261Z,15.14
2018-09-15T03:54:40.632Z,15.25
2018-09-15T03:57:09.761Z,15.26
2018-09-15T03:59:38.817Z,15.29
2018-09-15T04:04:43.624Z,15.32
2018-09-15T04:07:12.694Z,15.31
2018-09-15T04:09:41.760Z,15.23
2018-09-15T04:12:11.826Z,15.17
2018-09-15T04:14:40.899Z,15.12
2018-09-15T04:17:10.098Z,15.15
2018-09-15T04:27:26.648Z,15.02
2018-09-15T04:29:55.733Z,15.09
2018-09-15T04:32:24.870Z,15.05
2018-09-15T04:34:55.922Z,15.05
2018-09-15T04:37:24.996Z,14.96
2018-09-15T04:42:29.783Z,14.87
2018-09-15T04:44:58.878Z,14.91
2018-09-15T04:47:27.966Z,15.05
2018-09-15T04:49:57.045Z,15.09
2018-09-15T04:55:01.837Z,15.15
2018-09-15T05:00:10.041Z,15.16
2018-09-15T05:02:41.089Z,15.27
2018-09-15T05:05:10.161Z,15.17
2018-09-15T05:07:39.232Z,15.24
2018-09-15T05:10:10.217Z,15.27
2018-09-15T05:12:40.288Z,15.37
2018-09-15T05:15:10.262Z,15.32
2018-09-15T05:17:41.312Z,15.29
2018-09-15T05:20:10.386Z,15.34
2018-09-15T05:22:39.450Z,15.43
2018-09-15T05:25:08.503Z,15.42
2018-09-15T05:27:37.573Z,15.43
2018-09-15T05:30:06.642Z,15.45
2018-09-15T05:32:35.716Z,15.41
2018-09-15T05:35:04.768Z,15.42
2018-09-15T05:37:33.851Z,15.42
2018-09-15T05:40:02.995Z,15.44
2018-09-15T05:42:32.007Z,15.51
2018-09-15T05:45:01.083Z,15.56
2018-09-15T05:47:30.143Z,15.57
2018-09-15T05:50:00.117Z,15.68
2018-09-15T05:52:29.324Z,15.93
2018-09-15T05:55:00.361Z,16.01
2018-09-15T05:57:32.934Z,16.05
2018-09-15T06:00:06.540Z,16.08
2018-09-15T06:02:37.502Z,16.19
2018-09-15T06:10:22.029Z,16.13
2018-09-15T06:12:51.096Z,16.14
2018-09-15T06:15:30.078Z,16.41
2018-09-15T06:17:59.147Z,16.45
2018-09-15T06:20:28.224Z,16.72
2018-09-15T06:25:33.073Z,17.05
2018-09-15T06:28:19.032Z,17.12
2018-09-15T06:30:48.330Z,17.14
2018-09-15T06:33:20.931Z,17.08
2018-09-15T06:35:50.003Z,17.11
2018-09-15T06:38:19.054Z,17.18
2018-09-15T06:40:48.132Z,17.46
2018-09-15T06:43:17.209Z,17.48
2018-09-15T06:48:21.984Z,18.08
2018-09-15T06:50:52.089Z,17.74
2018-09-15T06:53:21.163Z,17.47
2018-09-15T06:55:50.226Z,17.59
2018-09-15T07:00:55.126Z,17.72
2018-09-15T07:03:31.934Z,17.80
2018-09-15T07:06:04.591Z,18.00
2018-09-15T07:08:33.660Z,17.75
2018-09-15T07:11:03.444Z,17.35
2018-09-15T07:13:33.544Z,17.60
2018-09-15T07:16:06.228Z,17.73
2018-09-15T07:18:37.244Z,17.87
2018-09-15T07:23:42.090Z,18.09
2018-09-15T07:26:11.337Z,18.20
2018-09-15T07:28:40.683Z,17.95
2018-09-15T07:31:09.789Z,18.15
2018-09-15T07:33:42.884Z,18.19
2018-09-15T07:36:12.916Z,18.02
2018-09-15T07:38:48.251Z,17.90
2018-09-15T07:41:17.302Z,17.83
2018-09-15T07:43:46.374Z,17.79
2018-09-15T07:46:16.329Z,17.78
2018-09-15T07:48:45.388Z,17.74
2018-09-15T07:51:16.511Z,17.78
2018-09-15T07:53:49.433Z,17.62
2018-09-15T07:56:22.204Z,17.42
2018-09-15T07:58:52.214Z,17.51
2018-09-15T08:01:22.329Z,17.45
2018-09-15T08:03:51.346Z,17.58
2018-09-15T08:06:23.705Z,17.69
2018-09-15T08:08:53.732Z,18.06
2018-09-15T08:11:23.887Z,18.43
2018-09-15T08:19:08.884Z,18.88
2018-09-15T08:24:17.227Z,19.68
2018-09-15T08:29:21.974Z,20.76
2018-09-15T08:31:51.038Z,21.22
2018-09-15T08:34:20.122Z,21.20
2018-09-15T08:39:25.927Z,20.67
2018-09-15T08:42:05.514Z,20.36
2018-09-15T08:44:34.562Z,19.98
2018-09-15T08:47:05.610Z,19.94
2018-09-15T08:52:10.471Z,21.15
2018-09-15T08:54:39.546Z,20.41
2018-09-15T08:57:09.588Z,19.04
2018-09-15T09:02:18.016Z,19.65
2018-09-15T09:07:22.884Z,20.38
2018-09-15T09:09:51.962Z,20.16
2018-09-15T09:15:00.199Z,19.57
2018-09-15T09:20:05.179Z,19.68
2018-09-15T09:22:34.145Z,21.78
2018-09-15T09:25:03.202Z,22.98
2018-09-15T09:30:10.026Z,22.09
2018-09-15T09:32:41.106Z,22.19
2018-09-15T09:35:11.095Z,23.25
2018-09-15T09:42:52.169Z,23.82
2018-09-15T09:47:56.999Z,21.85
2018-09-15T09:50:26.046Z,21.51
2018-09-15T09:52:55.100Z,21.62
2018-09-15T09:55:26.101Z,21.67
2018-09-15T10:00:30.974Z,24.17
2018-09-15T10:03:00.966Z,26.11
2018-09-15T10:08:05.879Z,26.45
2018-09-15T10:10:34.923Z,25.03
2018-09-15T10:13:05.932Z,24.23
2018-09-15T10:15:34.997Z,23.23
2018-09-15T10:18:07.339Z,23.00
2018-09-15T10:23:12.245Z,27.42
2018-09-15T10:25:41.303Z,30.46
2018-09-15T10:28:10.352Z,30.23
2018-09-15T10:30:39.406Z,31.71
2018-09-15T10:33:11.957Z,32.72
2018-09-15T10:35:41.018Z,34.22
2018-09-15T10:38:10.077Z,32.59
2018-09-15T10:40:39.147Z,27.69
2018-09-15T10:43:09.222Z,25.92
2018-09-15T10:45:40.161Z,24.84
2018-09-15T10:48:11.166Z,24.06
2018-09-15T10:50:40.350Z,23.54
2018-09-15T10:53:09.394Z,22.86
2018-09-15T10:55:38.440Z,22.25
2018-09-15T10:58:07.538Z,21.96
2018-09-15T11:00:36.617Z,21.69
2018-09-15T11:03:09.046Z,21.38
2018-09-15T11:05:38.077Z,20.74
2018-09-15T11:08:08.078Z,21.11
2018-09-15T11:10:44.724Z,20.44
2018-09-15T11:13:15.791Z,20.73
2018-09-15T11:20:56.420Z,25.76
2018-09-15T11:23:26.437Z,27.74
2018-09-15T11:25:55.502Z,26.33
2018-09-15T11:28:24.558Z,24.10
2018-09-15T11:33:30.374Z,22.25
2018-09-15T11:36:00.390Z,22.81
2018-09-15T11:41:05.325Z,23.27
2018-09-15T11:43:41.857Z,23.77
2018-09-15T11:46:14.405Z,23.25
2018-09-15T11:48:44.416Z,22.89
2018-09-15T11:53:49.390Z,22.78
2018-09-15T11:56:18.378Z,22.89
2018-09-15T11:58:47.428Z,22.98
2018-09-15T12:03:52.282Z,22.96
2018-09-15T12:06:22.333Z,23.28
2018-09-15T12:08:52.360Z,23.44
2018-09-15T12:13:57.246Z,23.75
2018-09-15T12:16:27.251Z,24.07
2018-09-15T12:18:59.519Z,23.66
2018-09-15T12:21:28.629Z,21.85
2018-09-15T12:23:57.617Z,22.43
2018-09-15T12:29:03.911Z,22.77
2018-09-15T12:31:32.986Z,22.26
2018-09-15T12:34:02.041Z,21.91
2018-09-15T12:39:14.441Z,23.53
2018-09-15T12:41:44.427Z,23.81
2018-09-15T12:46:50.312Z,28.09
2018-09-15T12:49:20.306Z,28.60
2018-09-15T12:54:25.200Z,30.39
2018-09-15T12:56:54.268Z,31.34
2018-09-15T12:59:26.969Z,34.04
2018-09-15T13:02:04.562Z,35.63
2018-09-15T13:04:34.561Z,34.63
2018-09-15T13:07:06.835Z,32.26
2018-09-15T13:09:36.893Z,30.56
2018-09-15T13:12:07.016Z,29.65
2018-09-15T13:14:37.958Z,30.44
2018-09-15T13:17:07.010Z,30.27
2018-09-15T13:19:38.075Z,30.90
2018-09-15T13:22:07.129Z,29.95
2018-09-15T13:24:37.438Z,28.14
2018-09-15T13:27:06.485Z,27.21
2018-09-15T13:29:39.944Z,25.88
2018-09-15T13:32:08.974Z,25.33
2018-09-15T13:37:13.876Z,24.74
2018-09-15T13:39:42.938Z,23.65
2018-09-15T13:44:47.850Z,22.97
2018-09-15T13:49:07.544Z,22.91
2018-09-15T13:51:36.672Z,22.58
2018-09-15T13:54:11.030Z,22.90
2018-09-15T13:59:15.820Z,23.42
2018-09-15T14:01:44.885Z,23.16
2018-09-15T14:06:49.775Z,22.73
2018-09-15T14:09:18.837Z,23.19
2018-09-15T14:14:23.725Z,23.57
2018-09-15T14:16:52.915Z,24.03
2018-09-15T14:19:22.926Z,25.62
2018-09-15T14:24:27.798Z,23.68
2018-09-15T14:26:59.025Z,23.11
2018-09-15T14:29:28.072Z,22.93
2018-09-15T14:34:33.928Z,22.29
2018-09-15T14:42:14.906Z,27.23
2018-09-15T14:44:43.966Z,29.09
2018-09-15T14:47:14.019Z,27.71
2018-09-15T14:49:43.081Z,28.73
2018-09-15T14:52:15.423Z,27.83
2018-09-15T14:54:48.079Z,27.67
2018-09-15T14:57:25.157Z,30.25
2018-09-15T14:59:55.177Z,31.94
2018-09-15T15:02:24.226Z,32.75
2018-09-15T15:10:04.801Z,27.46
2018-09-15T15:12:34.783Z,25.45
2018-09-15T15:17:39.672Z,23.75
2018-09-15T15:22:44.431Z,26.98
2018-09-15T15:25:13.496Z,27.51
2018-09-15T15:27:42.707Z,27.67
2018-09-15T15:32:47.577Z,28.33
2018-09-15T15:35:17.584Z,28.02
2018-09-15T15:37:48.639Z,27.78
2018-09-15T15:40:17.594Z,27.52
2018-09-15T15:45:22.480Z,26.52
2018-09-15T15:47:52.488Z,25.88
2018-09-15T15:50:21.572Z,25.03
2018-09-15T15:55:28.487Z,24.46
2018-09-15T15:57:58.424Z,24.31
2018-09-15T16:00:28.418Z,24.10
2018-09-15T16:05:33.309Z,23.68
2018-09-15T16:08:02.364Z,23.63
2018-09-15T16:13:07.240Z,23.33
2018-09-15T16:15:36.284Z,22.81
2018-09-15T16:20:41.109Z,22.37
2018-09-15T16:23:10.262Z,22.15
2018-09-15T16:25:39.388Z,22.08
2018-09-15T16:28:09.298Z,22.03
2018-09-15T16:33:15.173Z,21.64
2018-09-15T16:35:49.473Z,21.68
2018-09-15T16:38:20.783Z,21.37
2018-09-15T16:40:50.749Z,21.12
2018-09-15T16:43:24.720Z,20.99
2018-09-15T16:45:55.699Z,20.53
2018-09-15T16:48:24.788Z,20.28
2018-09-15T16:50:53.831Z,19.94
2018-09-15T16:53:22.896Z,20.02
2018-09-15T16:55:51.949Z,20.09
2018-09-15T16:58:21.005Z,20.00
2018-09-15T17:00:52.987Z,19.86
2018-09-15T17:03:25.905Z,19.64
2018-09-15T17:05:54.873Z,19.44
2018-09-15T17:08:23.933Z,19.28
2018-09-15T17:10:52.995Z,19.13
2018-09-15T17:13:22.961Z,18.82
2018-09-15T17:15:53.020Z,18.52
2018-09-15T17:18:24.026Z,18.36
2018-09-15T17:20:57.932Z,18.52
2018-09-15T17:23:28.981Z,18.61
2018-09-15T17:26:06.677Z,18.65
2018-09-15T17:28:35.734Z,18.94
2018-09-15T17:31:04.827Z,18.55
2018-09-15T17:33:33.844Z,18.58
2018-09-15T17:36:02.946Z,18.56
2018-09-15T17:38:31.991Z,18.58
2018-09-15T17:41:01.989Z,18.82
2018-09-15T17:43:34.868Z,18.47
2018-09-15T17:48:39.669Z,18.25
2018-09-15T17:51:08.725Z,18.24
2018-09-15T17:53:38.680Z,17.91
2018-09-15T17:58:45.057Z,17.62
2018-09-15T18:03:50.414Z,17.32
2018-09-15T18:06:21.458Z,17.14
2018-09-15T18:08:50.522Z,16.98
2018-09-15T18:11:19.564Z,16.88
2018-09-15T18:13:48.641Z,16.95
2018-09-15T18:16:17.689Z,16.86
2018-09-15T18:18:47.786Z,16.74
2018-09-15T18:23:52.629Z,16.87
2018-09-15T18:26:22.621Z,16.94
2018-09-15T18:34:03.254Z,17.18
2018-09-15T18:36:33.423Z,17.16
2018-09-15T18:39:02.362Z,16.99
2018-09-15T18:41:33.385Z,16.94
2018-09-15T18:49:14.110Z,17.15
2018-09-15T18:51:43.161Z,17.01
2018-09-15T18:54:12.205Z,16.78
2018-09-15T18:56:42.220Z,16.65
2018-09-15T18:59:11.273Z,16.48
2018-09-15T19:01:40.329Z,16.48
2018-09-15T19:06:47.646Z,16.48
2018-09-15T19:09:16.704Z,16.27
2018-09-15T19:11:45.897Z,16.29
2018-09-15T19:14:14.975Z,15.88
2018-09-15T19:16:43.974Z,15.62
2018-09-15T19:19:13.045Z,15.38
2018-09-15T19:21:42.096Z,15.26
2018-09-15T19:24:11.199Z,15.18
2018-09-15T19:26:40.291Z,15.24
2018-09-15T19:29:09.283Z,15.07
2018-09-15T19:31:38.340Z,14.92
2018-09-15T19:34:07.393Z,14.91
2018-09-15T19:36:36.447Z,14.79
2018-09-15T19:39:05.525Z,14.72
2018-09-15T19:41:35.532Z,14.54
2018-09-15T19:46:42.741Z,14.32
2018-09-15T19:51:47.694Z,14.21
2018-09-15T19:56:53.475Z,14.19
2018-09-15T19:59:23.522Z,14.22
2018-09-15T20:01:52.609Z,14.02
2018-09-15T20:04:22.617Z,14.03
2018-09-15T20:06:51.705Z,14.00
2018-09-15T20:11:56.566Z,13.92
2018-09-15T20:14:25.629Z,13.94
2018-09-15T20:16:53.886Z,13.82
2018-09-15T20:19:22.158Z,13.84
2018-09-15T20:27:02.773Z,13.65
2018-09-15T20:29:32.745Z,13.30
2018-09-15T20:32:01.811Z,13.18
2018-09-15T20:34:32.802Z,13.14
2018-09-15T20:37:01.888Z,13.13
2018-09-15T20:42:06.704Z,13.22
2018-09-15T20:44:35.909Z,13.26
2018-09-15T20:47:04.969Z,13.16
2018-09-15T20:49:34.965Z,13.02
2018-09-15T20:52:05.009Z,13.09
2018-09-15T20:54:36.025Z,13.13
2018-09-15T20:59:40.813Z,13.19
2018-09-15T21:02:09.861Z,13.18
2018-09-15T21:04:38.909Z,13.16
2018-09-15T21:09:43.754Z,13.10
2018-09-15T21:14:48.600Z,12.91
2018-09-15T21:17:17.685Z,12.85
2018-09-15T21:19:46.741Z,12.77
2018-09-15T21:22:16.821Z,12.69
2018-09-15T21:27:22.631Z,12.60
2018-09-15T21:29:54.831Z,12.66
2018-09-15T21:32:23.895Z,12.96
2018-09-15T21:34:52.942Z,12.60
2018-09-15T21:39:57.714Z,12.27
2018-09-15T21:42:26.879Z,12.27
2018-09-15T21:44:57.937Z,12.11
2018-09-15T21:47:27.965Z,12.05
2018-09-15T21:49:57.025Z,12.03
2018-09-15T21:52:27.170Z,12.10
2018-09-15T21:54:56.225Z,12.10
2018-09-15T21:57:25.279Z,12.04
2018-09-15T21:59:54.353Z,11.93
2018-09-15T22:02:23.414Z,11.79
2018-09-15T22:07:29.458Z,11.71
2018-09-15T22:12:34.329Z,11.77
2018-09-15T22:17:39.081Z,11.80
2018-09-15T22:20:08.141Z,11.81
2018-09-15T22:25:13.926Z,11.85
2018-09-15T22:27:43.949Z,11.64
2018-09-15T22:30:16.011Z,11.71
2018-09-15T22:32:45.972Z,11.64
2018-09-15T22:35:15.033Z,11.47
2018-09-15T22:37:45.087Z,11.52
2018-09-15T22:40:15.060Z,11.45
2018-09-15T22:42:44.120Z,11.42
2018-09-15T22:45:14.291Z,11.38
2018-09-15T22:47:43.336Z,11.45
2018-09-15T22:50:13.416Z,11.38
2018-09-15T22:52:42.476Z,11.32
2018-09-15T22:55:11.533Z,11.54
2018-09-15T23:00:17.290Z,11.32
2018-09-15T23:07:57.802Z,11.02
2018-09-15T23:13:02.597Z,11.14
2018-09-15T23:15:31.667Z,10.92
2018-09-15T23:18:00.841Z,10.89
2018-09-15T23:23:05.601Z,10.95
2018-09-15T23:25:34.666Z,11.04
2018-09-15T23:28:05.097Z,10.97
2018-09-15T23:30:34.202Z,10.88
2018-09-15T23:33:03.265Z,10.80
2018-09-15T23:35:32.321Z,10.74
2018-09-15T23:38:01.390Z,10.76
2018-09-15T23:40:30.443Z,10.71
2018-09-15T23:42:59.489Z,10.66
2018-09-15T23:45:29.517Z,10.65
2018-09-15T23:47:59.540Z,10.61
2018-09-15T23:50:28.605Z,10.62
2018-09-15T23:52:57.664Z,10.60
2018-09-15T23:55:26.740Z,10.64
2018-09-15T23:57:55.793Z,10.56
